sensor_id;sensor_type;location;lat;lon;timestamp;temperature;humidity
58849;DHT22;44619;51.022;6.818;2023-02-04T00:00:46;9.90;76.90
58849;DHT22;44619;51.022;6.818;2023-02-04T00:03:13;9.90;76.80
58849;DHT22;44619;51.022;6.818;2023-02-04T00:05:39;9.90;76.80
58849;DHT22;44619;51.022;6.818;2023-02-04T00:08:04;9.80;76.80
58849;DHT22;44619;51.022;6.818;2023-02-04T00:10:30;9.90;76.70
58849;DHT22;44619;51.022;6.818;2023-02-04T00:12:56;9.80;77.10
58849;DHT22;44619;51.022;6.818;2023-02-04T00:15:21;9.80;77.20
58849;DHT22;44619;51.022;6.818;2023-02-04T00:17:47;9.80;77.20
58849;DHT22;44619;51.022;6.818;2023-02-04T00:20:16;9.80;77.00
58849;DHT22;44619;51.022;6.818;2023-02-04T00:22:43;9.80;77.00
58849;DHT22;44619;51.022;6.818;2023-02-04T00:25:10;9.70;77.30
58849;DHT22;44619;51.022;6.818;2023-02-04T00:27:42;9.70;77.10
58849;DHT22;44619;51.022;6.818;2023-02-04T00:30:08;9.70;77.10
58849;DHT22;44619;51.022;6.818;2023-02-04T00:32:38;9.80;77.00
58849;DHT22;44619;51.022;6.818;2023-02-04T00:35:07;9.80;76.70
58849;DHT22;44619;51.022;6.818;2023-02-04T00:37:33;9.80;76.50
58849;DHT22;44619;51.022;6.818;2023-02-04T00:39:58;9.80;76.60
58849;DHT22;44619;51.022;6.818;2023-02-04T00:42:24;9.70;76.70
58849;DHT22;44619;51.022;6.818;2023-02-04T00:44:49;9.70;76.80
58849;DHT22;44619;51.022;6.818;2023-02-04T00:47:17;9.70;76.90
58849;DHT22;44619;51.022;6.818;2023-02-04T00:49:43;9.70;77.10
58849;DHT22;44619;51.022;6.818;2023-02-04T00:52:09;9.60;77.50
58849;DHT22;44619;51.022;6.818;2023-02-04T00:54:34;9.60;77.40
58849;DHT22;44619;51.022;6.818;2023-02-04T00:57:01;9.60;77.30
58849;DHT22;44619;51.022;6.818;2023-02-04T00:59:27;9.60;77.10
58849;DHT22;44619;51.022;6.818;2023-02-04T01:01:52;9.60;77.00
58849;DHT22;44619;51.022;6.818;2023-02-04T01:04:18;9.60;77.10
58849;DHT22;44619;51.022;6.818;2023-02-04T01:06:43;9.50;77.20
58849;DHT22;44619;51.022;6.818;2023-02-04T01:09:12;9.60;77.10
58849;DHT22;44619;51.022;6.818;2023-02-04T01:11:37;9.70;76.80
58849;DHT22;44619;51.022;6.818;2023-02-04T01:14:03;9.60;77.10
58849;DHT22;44619;51.022;6.818;2023-02-04T01:16:31;9.50;77.10
58849;DHT22;44619;51.022;6.818;2023-02-04T01:19:00;9.60;77.20
58849;DHT22;44619;51.022;6.818;2023-02-04T01:21:25;9.60;77.00
58849;DHT22;44619;51.022;6.818;2023-02-04T01:23:51;9.60;76.80
58849;DHT22;44619;51.022;6.818;2023-02-04T01:26:17;9.60;76.90
58849;DHT22;44619;51.022;6.818;2023-02-04T01:28:42;9.60;76.80
58849;DHT22;44619;51.022;6.818;2023-02-04T01:31:13;9.50;77.10
58849;DHT22;44619;51.022;6.818;2023-02-04T01:33:38;9.50;77.30
58849;DHT22;44619;51.022;6.818;2023-02-04T01:36:05;9.40;77.30
58849;DHT22;44619;51.022;6.818;2023-02-04T01:38:31;9.50;77.10
58849;DHT22;44619;51.022;6.818;2023-02-04T01:40:56;9.50;77.00
58849;DHT22;44619;51.022;6.818;2023-02-04T01:43:22;9.60;76.80
58849;DHT22;44619;51.022;6.818;2023-02-04T01:45:49;9.50;76.90
58849;DHT22;44619;51.022;6.818;2023-02-04T01:48:20;9.50;76.80
58849;DHT22;44619;51.022;6.818;2023-02-04T01:50:47;9.50;76.70
58849;DHT22;44619;51.022;6.818;2023-02-04T01:53:17;9.50;76.70
58849;DHT22;44619;51.022;6.818;2023-02-04T01:55:43;9.50;76.90
58849;DHT22;44619;51.022;6.818;2023-02-04T01:58:09;9.40;77.00
58849;DHT22;44619;51.022;6.818;2023-02-04T02:00:35;9.50;76.90
58849;DHT22;44619;51.022;6.818;2023-02-04T02:03:00;9.40;77.10
58849;DHT22;44619;51.022;6.818;2023-02-04T02:05:34;9.50;76.70
58849;DHT22;44619;51.022;6.818;2023-02-04T02:08:04;9.40;76.90
58849;DHT22;44619;51.022;6.818;2023-02-04T02:10:35;9.40;76.90
58849;DHT22;44619;51.022;6.818;2023-02-04T02:13:02;9.30;77.20
58849;DHT22;44619;51.022;6.818;2023-02-04T02:15:28;9.30;77.20
58849;DHT22;44619;51.022;6.818;2023-02-04T02:17:53;9.30;77.00
58849;DHT22;44619;51.022;6.818;2023-02-04T02:20:21;9.30;77.00
58849;DHT22;44619;51.022;6.818;2023-02-04T02:22:51;9.30;76.90
58849;DHT22;44619;51.022;6.818;2023-02-04T02:25:18;9.30;77.10
58849;DHT22;44619;51.022;6.818;2023-02-04T02:27:44;9.30;76.90
58849;DHT22;44619;51.022;6.818;2023-02-04T02:30:10;9.30;76.90
58849;DHT22;44619;51.022;6.818;2023-02-04T02:32:36;9.20;77.50
58849;DHT22;44619;51.022;6.818;2023-02-04T02:35:03;9.20;77.40
58849;DHT22;44619;51.022;6.818;2023-02-04T02:37:29;9.20;77.30
58849;DHT22;44619;51.022;6.818;2023-02-04T02:39:54;9.20;77.20
58849;DHT22;44619;51.022;6.818;2023-02-04T02:42:21;9.10;77.40
58849;DHT22;44619;51.022;6.818;2023-02-04T02:44:53;9.10;77.60
58849;DHT22;44619;51.022;6.818;2023-02-04T02:47:27;9.10;77.60
58849;DHT22;44619;51.022;6.818;2023-02-04T02:49:53;9.20;77.40
58849;DHT22;44619;51.022;6.818;2023-02-04T02:52:19;9.10;77.60
58849;DHT22;44619;51.022;6.818;2023-02-04T02:54:45;9.10;77.60
58849;DHT22;44619;51.022;6.818;2023-02-04T02:57:11;9.20;76.90
58849;DHT22;44619;51.022;6.818;2023-02-04T02:59:38;9.20;76.90
58849;DHT22;44619;51.022;6.818;2023-02-04T03:02:03;9.20;77.10
58849;DHT22;44619;51.022;6.818;2023-02-04T03:04:30;9.10;77.30
58849;DHT22;44619;51.022;6.818;2023-02-04T03:06:57;9.10;77.20
58849;DHT22;44619;51.022;6.818;2023-02-04T03:09:23;9.10;78.10
58849;DHT22;44619;51.022;6.818;2023-02-04T03:11:50;9.10;77.50
58849;DHT22;44619;51.022;6.818;2023-02-04T03:14:15;9.10;77.20
58849;DHT22;44619;51.022;6.818;2023-02-04T03:16:41;9.10;77.40
58849;DHT22;44619;51.022;6.818;2023-02-04T03:19:08;9.00;77.60
58849;DHT22;44619;51.022;6.818;2023-02-04T03:21:37;8.90;77.80
58849;DHT22;44619;51.022;6.818;2023-02-04T03:24:06;8.90;77.80
58849;DHT22;44619;51.022;6.818;2023-02-04T03:26:32;8.90;77.80
58849;DHT22;44619;51.022;6.818;2023-02-04T03:28:57;9.10;77.50
58849;DHT22;44619;51.022;6.818;2023-02-04T03:31:26;9.10;77.10
58849;DHT22;44619;51.022;6.818;2023-02-04T03:33:52;9.00;77.50
58849;DHT22;44619;51.022;6.818;2023-02-04T03:36:17;9.00;77.30
58849;DHT22;44619;51.022;6.818;2023-02-04T03:38:43;9.00;77.10
58849;DHT22;44619;51.022;6.818;2023-02-04T03:41:08;8.90;77.70
58849;DHT22;44619;51.022;6.818;2023-02-04T03:43:34;8.90;77.60
58849;DHT22;44619;51.022;6.818;2023-02-04T03:49:03;8.90;77.40
58849;DHT22;44619;51.022;6.818;2023-02-04T03:51:32;8.90;77.10
58849;DHT22;44619;51.022;6.818;2023-02-04T03:53:57;8.90;77.40
58849;DHT22;44619;51.022;6.818;2023-02-04T03:56:23;8.90;77.40
58849;DHT22;44619;51.022;6.818;2023-02-04T03:58:48;8.90;77.30
58849;DHT22;44619;51.022;6.818;2023-02-04T04:01:14;8.90;77.20
58849;DHT22;44619;51.022;6.818;2023-02-04T04:03:39;8.80;77.60
58849;DHT22;44619;51.022;6.818;2023-02-04T04:06:05;8.90;77.00
58849;DHT22;44619;51.022;6.818;2023-02-04T04:08:34;8.80;76.90
58849;DHT22;44619;51.022;6.818;2023-02-04T04:11:00;8.90;77.10
58849;DHT22;44619;51.022;6.818;2023-02-04T04:13:25;8.90;76.90
58849;DHT22;44619;51.022;6.818;2023-02-04T04:15:51;8.90;76.80
58849;DHT22;44619;51.022;6.818;2023-02-04T04:18:18;8.80;77.00
58849;DHT22;44619;51.022;6.818;2023-02-04T04:20:43;8.80;77.00
58849;DHT22;44619;51.022;6.818;2023-02-04T04:23:12;8.80;77.00
58849;DHT22;44619;51.022;6.818;2023-02-04T04:25:40;8.80;76.90
58849;DHT22;44619;51.022;6.818;2023-02-04T04:28:08;8.70;77.10
58849;DHT22;44619;51.022;6.818;2023-02-04T04:30:39;8.60;77.60
58849;DHT22;44619;51.022;6.818;2023-02-04T04:33:05;8.70;77.10
58849;DHT22;44619;51.022;6.818;2023-02-04T04:35:35;8.60;77.40
58849;DHT22;44619;51.022;6.818;2023-02-04T04:38:01;8.70;77.10
58849;DHT22;44619;51.022;6.818;2023-02-04T04:40:27;8.60;77.10
58849;DHT22;44619;51.022;6.818;2023-02-04T04:42:53;8.70;76.70
58849;DHT22;44619;51.022;6.818;2023-02-04T04:45:19;8.70;76.80
58849;DHT22;44619;51.022;6.818;2023-02-04T04:47:44;8.60;77.10
58849;DHT22;44619;51.022;6.818;2023-02-04T04:50:10;8.60;77.40
58849;DHT22;44619;51.022;6.818;2023-02-04T04:52:35;8.60;77.30
58849;DHT22;44619;51.022;6.818;2023-02-04T04:55:01;8.60;76.90
58849;DHT22;44619;51.022;6.818;2023-02-04T04:57:27;8.60;76.90
58849;DHT22;44619;51.022;6.818;2023-02-04T04:59:52;8.60;76.90
58849;DHT22;44619;51.022;6.818;2023-02-04T05:02:17;8.50;77.00
58849;DHT22;44619;51.022;6.818;2023-02-04T05:04:43;8.50;77.10
58849;DHT22;44619;51.022;6.818;2023-02-04T05:07:08;8.50;77.40
58849;DHT22;44619;51.022;6.818;2023-02-04T05:09:34;8.50;77.50
58849;DHT22;44619;51.022;6.818;2023-02-04T05:12:02;8.40;77.40
58849;DHT22;44619;51.022;6.818;2023-02-04T05:14:28;8.50;77.30
58849;DHT22;44619;51.022;6.818;2023-02-04T05:16:53;8.60;76.90
58849;DHT22;44619;51.022;6.818;2023-02-04T05:19:19;8.60;76.90
58849;DHT22;44619;51.022;6.818;2023-02-04T05:21:44;8.40;77.50
58849;DHT22;44619;51.022;6.818;2023-02-04T05:24:10;8.40;77.30
58849;DHT22;44619;51.022;6.818;2023-02-04T05:26:36;8.40;77.60
58849;DHT22;44619;51.022;6.818;2023-02-04T05:29:02;8.50;76.80
58849;DHT22;44619;51.022;6.818;2023-02-04T05:31:27;8.60;76.50
58849;DHT22;44619;51.022;6.818;2023-02-04T05:33:53;8.50;76.50
58849;DHT22;44619;51.022;6.818;2023-02-04T05:36:19;8.50;76.50
58849;DHT22;44619;51.022;6.818;2023-02-04T05:38:44;8.50;76.40
58849;DHT22;44619;51.022;6.818;2023-02-04T05:41:10;8.40;77.00
58849;DHT22;44619;51.022;6.818;2023-02-04T05:43:36;8.40;77.10
58849;DHT22;44619;51.022;6.818;2023-02-04T05:46:04;8.30;76.90
58849;DHT22;44619;51.022;6.818;2023-02-04T05:48:30;8.30;76.90
58849;DHT22;44619;51.022;6.818;2023-02-04T05:50:55;8.30;76.80
58849;DHT22;44619;51.022;6.818;2023-02-04T05:53:21;8.30;77.10
58849;DHT22;44619;51.022;6.818;2023-02-04T05:55:46;8.20;77.10
58849;DHT22;44619;51.022;6.818;2023-02-04T05:58:12;8.10;77.50
58849;DHT22;44619;51.022;6.818;2023-02-04T06:00:37;8.30;77.20
58849;DHT22;44619;51.022;6.818;2023-02-04T06:03:03;8.20;77.10
58849;DHT22;44619;51.022;6.818;2023-02-04T06:05:29;8.10;77.30
58849;DHT22;44619;51.022;6.818;2023-02-04T06:07:54;8.10;77.30
58849;DHT22;44619;51.022;6.818;2023-02-04T06:10:20;8.20;77.20
58849;DHT22;44619;51.022;6.818;2023-02-04T06:12:46;8.10;77.20
58849;DHT22;44619;51.022;6.818;2023-02-04T06:15:11;8.30;77.00
58849;DHT22;44619;51.022;6.818;2023-02-04T06:17:38;8.30;76.60
58849;DHT22;44619;51.022;6.818;2023-02-04T06:20:05;8.30;77.30
58849;DHT22;44619;51.022;6.818;2023-02-04T06:22:30;8.30;76.40
58849;DHT22;44619;51.022;6.818;2023-02-04T06:24:56;8.10;77.10
58849;DHT22;44619;51.022;6.818;2023-02-04T06:27:21;8.10;77.30
58849;DHT22;44619;51.022;6.818;2023-02-04T06:29:53;8.10;77.30
58849;DHT22;44619;51.022;6.818;2023-02-04T06:32:20;8.10;77.30
58849;DHT22;44619;51.022;6.818;2023-02-04T06:34:45;8.20;76.90
58849;DHT22;44619;51.022;6.818;2023-02-04T06:37:11;8.20;76.90
58849;DHT22;44619;51.022;6.818;2023-02-04T06:39:37;8.20;77.00
58849;DHT22;44619;51.022;6.818;2023-02-04T06:42:02;8.10;77.20
58849;DHT22;44619;51.022;6.818;2023-02-04T06:44:31;8.10;77.30
58849;DHT22;44619;51.022;6.818;2023-02-04T06:46:56;8.00;77.20
58849;DHT22;44619;51.022;6.818;2023-02-04T06:49:22;8.20;76.40
58849;DHT22;44619;51.022;6.818;2023-02-04T06:51:49;8.10;76.70
58849;DHT22;44619;51.022;6.818;2023-02-04T06:54:15;8.20;76.50
58849;DHT22;44619;51.022;6.818;2023-02-04T06:56:41;8.20;76.60
58849;DHT22;44619;51.022;6.818;2023-02-04T06:59:09;8.10;76.90
58849;DHT22;44619;51.022;6.818;2023-02-04T07:01:36;8.10;76.90
58849;DHT22;44619;51.022;6.818;2023-02-04T07:04:01;8.10;77.60
58849;DHT22;44619;51.022;6.818;2023-02-04T07:06:27;8.00;77.20
58849;DHT22;44619;51.022;6.818;2023-02-04T07:08:54;8.00;77.10
58849;DHT22;44619;51.022;6.818;2023-02-04T07:11:19;8.10;76.80
58849;DHT22;44619;51.022;6.818;2023-02-04T07:13:45;8.10;76.90
58849;DHT22;44619;51.022;6.818;2023-02-04T07:16:10;8.00;76.90
58849;DHT22;44619;51.022;6.818;2023-02-04T07:18:36;8.10;76.80
58849;DHT22;44619;51.022;6.818;2023-02-04T07:21:01;8.10;76.60
58849;DHT22;44619;51.022;6.818;2023-02-04T07:23:27;8.10;76.50
58849;DHT22;44619;51.022;6.818;2023-02-04T07:25:58;8.20;76.40
58849;DHT22;44619;51.022;6.818;2023-02-04T07:28:27;8.10;76.50
58849;DHT22;44619;51.022;6.818;2023-02-04T07:30:52;8.10;76.60
58849;DHT22;44619;51.022;6.818;2023-02-04T07:33:18;8.20;76.40
58849;DHT22;44619;51.022;6.818;2023-02-04T07:35:43;8.20;76.20
58849;DHT22;44619;51.022;6.818;2023-02-04T07:38:09;8.10;76.30
58849;DHT22;44619;51.022;6.818;2023-02-04T07:40:35;8.20;76.50
58849;DHT22;44619;51.022;6.818;2023-02-04T07:43:09;8.20;76.40
58849;DHT22;44619;51.022;6.818;2023-02-04T07:45:35;8.20;76.50
58849;DHT22;44619;51.022;6.818;2023-02-04T07:48:00;8.10;76.50
58849;DHT22;44619;51.022;6.818;2023-02-04T07:50:26;8.10;76.70
58849;DHT22;44619;51.022;6.818;2023-02-04T07:52:51;8.20;76.50
58849;DHT22;44619;51.022;6.818;2023-02-04T07:55:17;8.30;76.20
58849;DHT22;44619;51.022;6.818;2023-02-04T07:57:42;8.20;76.40
58849;DHT22;44619;51.022;6.818;2023-02-04T08:00:08;8.20;76.50
58849;DHT22;44619;51.022;6.818;2023-02-04T08:02:34;8.10;77.10
58849;DHT22;44619;51.022;6.818;2023-02-04T08:04:59;8.20;76.80
58849;DHT22;44619;51.022;6.818;2023-02-04T08:07:28;8.10;77.00
58849;DHT22;44619;51.022;6.818;2023-02-04T08:09:54;8.00;77.60
58849;DHT22;44619;51.022;6.818;2023-02-04T08:12:20;8.10;77.30
58849;DHT22;44619;51.022;6.818;2023-02-04T08:14:45;8.30;77.00
58849;DHT22;44619;51.022;6.818;2023-02-04T08:17:11;8.30;76.80
58849;DHT22;44619;51.022;6.818;2023-02-04T08:19:36;8.40;76.60
58849;DHT22;44619;51.022;6.818;2023-02-04T08:22:02;8.40;76.40
58849;DHT22;44619;51.022;6.818;2023-02-04T08:24:27;8.50;76.40
58849;DHT22;44619;51.022;6.818;2023-02-04T08:26:54;8.50;76.00
58849;DHT22;44619;51.022;6.818;2023-02-04T08:29:19;8.50;75.90
58849;DHT22;44619;51.022;6.818;2023-02-04T08:31:45;8.50;76.20
58849;DHT22;44619;51.022;6.818;2023-02-04T08:34:12;8.60;76.00
58849;DHT22;44619;51.022;6.818;2023-02-04T08:36:37;8.60;76.20
58849;DHT22;44619;51.022;6.818;2023-02-04T14:09:04;16.70;56.30
58849;DHT22;44619;51.022;6.818;2023-02-04T14:11:32;15.60;72.20
58849;DHT22;44619;51.022;6.818;2023-02-04T14:13:58;15.60;60.40
58849;DHT22;44619;51.022;6.818;2023-02-04T14:16:23;15.70;61.20
58849;DHT22;44619;51.022;6.818;2023-02-04T14:18:49;15.90;61.40
58849;DHT22;44619;51.022;6.818;2023-02-04T14:21:16;15.90;61.60
58849;DHT22;44619;51.022;6.818;2023-02-04T14:23:42;16.00;61.70
58849;DHT22;44619;51.022;6.818;2023-02-04T14:26:08;16.00;62.00
58849;DHT22;44619;51.022;6.818;2023-02-04T14:28:34;16.10;61.70
58849;DHT22;44619;51.022;6.818;2023-02-04T14:30:59;16.00;62.20
58849;DHT22;44619;51.022;6.818;2023-02-04T14:33:25;16.10;62.20
58849;DHT22;44619;51.022;6.818;2023-02-04T14:35:51;16.00;62.60
58849;DHT22;44619;51.022;6.818;2023-02-04T14:38:18;16.10;62.70
58849;DHT22;44619;51.022;6.818;2023-02-04T14:40:43;16.10;62.40
58849;DHT22;44619;51.022;6.818;2023-02-04T14:43:09;16.20;62.60
58849;DHT22;44619;51.022;6.818;2023-02-04T14:45:38;16.10;62.50
58849;DHT22;44619;51.022;6.818;2023-02-04T14:48:04;16.10;62.80
58849;DHT22;44619;51.022;6.818;2023-02-04T14:50:33;16.10;62.90
58849;DHT22;44619;51.022;6.818;2023-02-04T14:52:58;16.00;63.10
58849;DHT22;44619;51.022;6.818;2023-02-04T14:55:25;16.00;63.30
58849;DHT22;44619;51.022;6.818;2023-02-04T14:57:50;16.00;63.30
58849;DHT22;44619;51.022;6.818;2023-02-04T15:00:16;15.90;63.80
58849;DHT22;44619;51.022;6.818;2023-02-04T15:02:45;15.90;64.00
58849;DHT22;44619;51.022;6.818;2023-02-04T15:05:17;15.90;63.90
58849;DHT22;44619;51.022;6.818;2023-02-04T15:07:42;15.90;63.90
58849;DHT22;44619;51.022;6.818;2023-02-04T15:10:08;15.80;63.90
58849;DHT22;44619;51.022;6.818;2023-02-04T15:12:38;15.80;63.90
58849;DHT22;44619;51.022;6.818;2023-02-04T15:15:04;15.80;63.80
58849;DHT22;44619;51.022;6.818;2023-02-04T15:17:30;15.80;63.70
58849;DHT22;44619;51.022;6.818;2023-02-04T15:19:55;15.80;63.70
58849;DHT22;44619;51.022;6.818;2023-02-04T15:22:24;15.70;63.80
58849;DHT22;44619;51.022;6.818;2023-02-04T15:24:49;15.70;63.80
58849;DHT22;44619;51.022;6.818;2023-02-04T15:27:18;15.60;64.10
58849;DHT22;44619;51.022;6.818;2023-02-04T15:29:43;15.60;64.10
58849;DHT22;44619;51.022;6.818;2023-02-04T15:32:09;15.60;64.20
58849;DHT22;44619;51.022;6.818;2023-02-04T15:34:34;15.50;64.30
58849;DHT22;44619;51.022;6.818;2023-02-04T15:37:01;15.50;64.20
58849;DHT22;44619;51.022;6.818;2023-02-04T15:39:26;15.50;64.10
58849;DHT22;44619;51.022;6.818;2023-02-04T15:41:52;15.40;64.20
58849;DHT22;44619;51.022;6.818;2023-02-04T15:44:17;15.30;64.60
58849;DHT22;44619;51.022;6.818;2023-02-04T15:46:45;15.20;65.00
58849;DHT22;44619;51.022;6.818;2023-02-04T15:49:11;15.00;65.40
58849;DHT22;44619;51.022;6.818;2023-02-04T15:51:36;14.80;65.80
58849;DHT22;44619;51.022;6.818;2023-02-04T15:54:02;14.80;65.80
58849;DHT22;44619;51.022;6.818;2023-02-04T15:56:27;14.70;66.10
58849;DHT22;44619;51.022;6.818;2023-02-04T15:58:53;14.70;66.10
58849;DHT22;44619;51.022;6.818;2023-02-04T16:01:21;14.60;66.20
58849;DHT22;44619;51.022;6.818;2023-02-04T16:03:46;14.60;66.20
58849;DHT22;44619;51.022;6.818;2023-02-04T16:06:14;14.50;66.30
58849;DHT22;44619;51.022;6.818;2023-02-04T16:08:39;14.50;66.10
58849;DHT22;44619;51.022;6.818;2023-02-04T16:11:05;14.40;66.10
58849;DHT22;44619;51.022;6.818;2023-02-04T16:13:30;14.40;66.10
58849;DHT22;44619;51.022;6.818;2023-02-04T16:15:56;14.30;66.60
58849;DHT22;44619;51.022;6.818;2023-02-04T16:18:21;14.20;66.80
58849;DHT22;44619;51.022;6.818;2023-02-04T16:20:49;14.10;67.30
58849;DHT22;44619;51.022;6.818;2023-02-04T16:23:14;14.00;67.20
58849;DHT22;44619;51.022;6.818;2023-02-04T16:25:40;14.00;67.10
58849;DHT22;44619;51.022;6.818;2023-02-04T16:28:08;14.00;67.20
58849;DHT22;44619;51.022;6.818;2023-02-04T16:30:34;13.90;67.30
58849;DHT22;44619;51.022;6.818;2023-02-04T16:32:59;13.90;67.20
58849;DHT22;44619;51.022;6.818;2023-02-04T16:35:25;13.90;67.20
58849;DHT22;44619;51.022;6.818;2023-02-04T16:37:51;13.90;67.00
58849;DHT22;44619;51.022;6.818;2023-02-04T16:40:17;13.80;67.00
58849;DHT22;44619;51.022;6.818;2023-02-04T16:42:42;13.90;66.90
58849;DHT22;44619;51.022;6.818;2023-02-04T16:45:08;13.80;66.80
58849;DHT22;44619;51.022;6.818;2023-02-04T16:47:34;13.70;67.10
58849;DHT22;44619;51.022;6.818;2023-02-04T16:49:59;13.60;67.20
58849;DHT22;44619;51.022;6.818;2023-02-04T16:52:28;13.50;68.00
58849;DHT22;44619;51.022;6.818;2023-02-04T16:54:55;13.50;67.00
58849;DHT22;44619;51.022;6.818;2023-02-04T16:57:20;13.40;67.30
58849;DHT22;44619;51.022;6.818;2023-02-04T16:59:46;13.30;67.50
58849;DHT22;44619;51.022;6.818;2023-02-04T17:02:11;13.20;67.50
58849;DHT22;44619;51.022;6.818;2023-02-04T17:04:37;13.20;67.50
58849;DHT22;44619;51.022;6.818;2023-02-04T17:07:02;13.10;67.10
58849;DHT22;44619;51.022;6.818;2023-02-04T17:09:29;13.00;67.40
58849;DHT22;44619;51.022;6.818;2023-02-04T17:11:55;13.00;67.50
58849;DHT22;44619;51.022;6.818;2023-02-04T17:14:20;13.00;67.40
58849;DHT22;44619;51.022;6.818;2023-02-04T17:16:46;13.00;67.30
58849;DHT22;44619;51.022;6.818;2023-02-04T17:19:14;12.80;67.60
58849;DHT22;44619;51.022;6.818;2023-02-04T17:21:41;12.80;67.60
58849;DHT22;44619;51.022;6.818;2023-02-04T17:24:07;12.60;68.10
58849;DHT22;44619;51.022;6.818;2023-02-04T17:26:33;12.70;67.80
58849;DHT22;44619;51.022;6.818;2023-02-04T17:29:03;12.60;68.00
58849;DHT22;44619;51.022;6.818;2023-02-04T17:31:29;12.50;68.00
58849;DHT22;44619;51.022;6.818;2023-02-04T17:33:58;12.50;68.30
58849;DHT22;44619;51.022;6.818;2023-02-04T17:36:24;12.40;68.60
58849;DHT22;44619;51.022;6.818;2023-02-04T17:38:50;12.20;68.70
58849;DHT22;44619;51.022;6.818;2023-02-04T17:41:16;12.30;68.70
58849;DHT22;44619;51.022;6.818;2023-02-04T17:43:41;12.30;68.70
58849;DHT22;44619;51.022;6.818;2023-02-04T17:46:07;12.20;68.90
58849;DHT22;44619;51.022;6.818;2023-02-04T17:48:32;12.10;69.10
58849;DHT22;44619;51.022;6.818;2023-02-04T17:50:58;12.10;69.00
58849;DHT22;44619;51.022;6.818;2023-02-04T17:53:24;12.10;68.70
58849;DHT22;44619;51.022;6.818;2023-02-04T17:55:52;12.10;68.60
58849;DHT22;44619;51.022;6.818;2023-02-04T17:58:29;12.00;68.90
58849;DHT22;44619;51.022;6.818;2023-02-04T18:01:00;12.00;69.00
58849;DHT22;44619;51.022;6.818;2023-02-04T18:03:26;11.70;69.30
58849;DHT22;44619;51.022;6.818;2023-02-04T18:05:53;11.80;69.50
58849;DHT22;44619;51.022;6.818;2023-02-04T18:08:33;11.80;69.40
58849;DHT22;44619;51.022;6.818;2023-02-04T18:11:01;11.70;69.70
58849;DHT22;44619;51.022;6.818;2023-02-04T18:13:30;11.60;69.80
58849;DHT22;44619;51.022;6.818;2023-02-04T18:16:00;11.80;69.50
58849;DHT22;44619;51.022;6.818;2023-02-04T18:18:30;11.60;69.70
58849;DHT22;44619;51.022;6.818;2023-02-04T18:23:40;11.60;70.10
58849;DHT22;44619;51.022;6.818;2023-02-04T18:26:11;11.40;70.70
58849;DHT22;44619;51.022;6.818;2023-02-04T18:28:37;11.50;70.20
58849;DHT22;44619;51.022;6.818;2023-02-04T18:31:16;11.50;70.10
58849;DHT22;44619;51.022;6.818;2023-02-04T18:33:45;11.40;70.60
58849;DHT22;44619;51.022;6.818;2023-02-04T18:36:15;11.30;70.40
58849;DHT22;44619;51.022;6.818;2023-02-04T18:38:43;11.30;70.60
58849;DHT22;44619;51.022;6.818;2023-02-04T18:43:34;11.40;69.70
58849;DHT22;44619;51.022;6.818;2023-02-04T18:46:02;11.60;69.30
58849;DHT22;44619;51.022;6.818;2023-02-04T18:48:45;11.60;69.10
58849;DHT22;44619;51.022;6.818;2023-02-04T18:51:27;11.50;69.40
58849;DHT22;44619;51.022;6.818;2023-02-04T18:53:57;11.60;69.00
58849;DHT22;44619;51.022;6.818;2023-02-04T18:56:23;11.60;68.90
58849;DHT22;44619;51.022;6.818;2023-02-04T18:58:49;11.60;69.00
58849;DHT22;44619;51.022;6.818;2023-02-04T19:04:00;11.70;68.50
